AirNav   Duncan Aviation - Near you to keep you flying
 
 1033 users online  

XS67 San Jose Island Airport
Rockport, Texas, USA

GOING TO ROCKPORT?


FAA INFORMATION EFFECTIVE 16 JUNE 2022

Location

FAA Identifier: XS67
Lat/Long: 27-56-40.0470N 096-59-06.0360W
27-56.667450N 096-59.100600W
27.9444575,-96.9850100
(estimated)
Elevation: 10.5 ft. / 3.2 m (surveyed)
Variation: 06E (2000)
From city: 6 miles SE of ROCKPORT, TX
Time zone: UTC -5 (UTC -6 during Standard Time)
Zip code: 78382

Airport Operations

Airport use: Private use. Permission required prior to landing
Activation date: 03/1972
Control tower: no
ARTCC: HOUSTON CENTER
FSS: SAN ANGELO FLIGHT SERVICE STATION
NOTAMs facility: FDC (NOTAM-D service not available)
Attendance: UNATNDD
Wind indicator: yes
Segmented circle: no
Lights: ACTVT PAPI RWY 14 & 32; HIRL RWY 14/32 - CTAF.

Airport Communications

CTAF: 129.275
WX ASOS at RKP (9 nm N): 119.275 (361-729-2372)
WX AWOS-3 at RAS (10 nm SW): 118.425 (361-749-0537)
WX AWOS-3 at TFP (12 nm W): 118.775 (361-758-8961)

Airport Services

Runway Information

Runway 14/32

Dimensions: 4901 x 88 ft. / 1494 x 27 m
Surface: asphalt, in good condition
Runway edge lights: high intensity
STROBE LGTS.
RUNWAY 14  RUNWAY 32
Latitude: 27-57.017390N27-56.317497N
Longitude: 096-59.328853W096-58.872365W
Elevation: 4.4 ft.6.6 ft.
Traffic pattern: leftleft
Runway heading: 144 magnetic, 150 true324 magnetic, 330 true
Markings: nonprecision, in good conditionnonprecision, in good condition
Visual slope indicator: 2-light PAPI on left (3.00 degrees glide path)2-light PAPI on left (3.00 degrees glide path)
Runway end identifier lights: yesyes
Touchdown point: yes, no lightsyes, no lights

Airport Ownership and Management from official FAA records

Ownership: Privately-owned
Owner: DOWNTOWN DIVERSIFIED REALTY LLC
201 MAIN STREET, SUITE 2600
FT WORTH, TX 76102
Phone 817-625-1611
Manager: STEVE OHMSTEDE
3800 LINCOLN AVE.
FT WORTH, TX 76106
Phone (817) 625-1611

Additional Remarks

PAPI BOTH ENDS RWY 14 & 32.
FOR CD CTC CORPUS CHRISTI APCH AT 361-299-4230.

Instrument Procedures

There are no published instrument procedures at XS67.

Some nearby airports with instrument procedures:

KRKP - Aransas County Airport (9 nm N)
KRAS - Mustang Beach Airport (10 nm SW)
KTFP - McCampbell-Porter Airport (12 nm W)
KNGP - Corpus Christi Naval Air Station/Truax Field (22 nm SW)
KCRP - Corpus Christi International Airport (29 nm W)
 
Loc | Ops | Rwys | IFR | FBO | Links
Com | Nav | Svcs | Stats | Notes
Area around XS67 (San Jose Island Airport)
 
Road maps at: MapQuest Bing Google
 
Aerial photo
WARNING: Photo may not be current or correct
Aerial photo of XS67 (San Jose Island Airport)
Do you have a better or more recent aerial photo of San Jose Island Airport that you would like to share? If so, please send us your photo.

 
Sectional chart

 
Airport distance calculator
Flying to San Jose Island Airport? Find the distance to fly.

From to XS67

Sunrise and sunset
Times for 26-Jun-2022
 Local
(UTC-5)
 Zulu
(UTC)
Morning civil twilight06:0811:08
Sunrise06:3511:35
Sunset20:2701:27
Evening civil twilight20:5401:54

Current date and time
Zulu (UTC)  27-Jun-2022 00:43:51
Local (UTC-5)  26-Jun-2022 19:43:51
 
METAR
KRKP 
9nm N 
262353Z AUTO 13013KT 10SM CLR 31/24 A3000 RMK AO2 SLP160 T03110239 10350 20311 56009 $
KRAS 
10nm SW 
270015Z AUTO 12012KT 10SM CLR 30/24 A3001 RMK AO2 T02990244
KTFP 
12nm W 
262355Z AUTO 16015KT 3SM CLR 32/23 A2999 RMK AO2 T03170229
TAF
KNGP 
22nm SW 
2623/2723 13010G18KT 9999 FEW025 SCT250 QNH2995INS BECMG 2706/2718 16010G18KT 9999 SCT020 QNH2998INS TEMPO 2706/2710 BKN010 BECMG 2710/2712 VRB06KT 9999 SCT020 QNH3000INS BECMG 2718/2720 10008KT 9999 SCT025 QNH2992INS AUTOMATED SENSOR METWATCH 2623 TIL 2711 T26/2710Z T32/2720Z FN00253
NOTAMs
Click for the latest NOTAMs
NOTAMs are issued by the DoD/FAA and will open in a separate window not controlled by AirNav.

 

 
 

Would you like to see your business listed on this page?

 If your business provides an interesting product or service to pilots, flight crews, aircraft, or users of the San Jose Island Airport, you should consider listing it here.  To start the listing process, click on the button below
 
Add a business
 

Other Pages about San Jose Island Airport

Update a link
 
Copyright © AirNav, LLC. All rights reserved. Privacy Policy  Contact